Time;durP1;ratioP1;P1;durP2;ratioP2;P2;SDS_P1;SDS_P2;PMS_P1;PMS_P2;Temp;Humidity;BMP_temperature;BMP_pressure;BME280_temperature;BME280_humidity;BME280_pressure;Samples;Min_cycle;Max_cycle;Signal;HPM_P1;HPM_P2
2022/12/18 00:58:22;;;;;;;135.88;37.92;;;-4.60;99.90;;;;;;7574487;19;20404;-69
2022/12/18 07:59:07;;;;;;;90.80;28.90;;;-5.00;99.90;;;;;;7615853;19;20415;-68
2022/12/18 08:01:39;;;;;;;99.15;31.10;;;-5.00;99.90;;;;;;7614423;19;20018;-70
2022/12/18 08:04:13;;;;;;;91.53;30.02;;;-5.00;99.90;;;;;;7634773;19;20073;-70
2022/12/18 08:06:46;;;;;;;92.20;30.23;;;-4.90;99.90;;;;;;7612590;19;20101;-70
2022/12/18 08:09:19;;;;;;;96.97;30.50;;;-4.80;99.90;;;;;;7607900;19;20270;-70
2022/12/18 08:11:51;;;;;;;101.03;31.35;;;-4.70;99.90;;;;;;7596335;19;20024;-69
2022/12/18 08:14:24;;;;;;;107.35;32.70;;;-4.70;99.90;;;;;;7594788;19;20029;-70
2022/12/18 08:16:56;;;;;;;87.45;27.98;;;-4.60;99.90;;;;;;7610988;19;20010;-69
2022/12/18 08:19:28;;;;;;;88.95;28.42;;;-4.50;99.90;;;;;;7605820;19;20026;-69
2022/12/18 08:22:00;;;;;;;96.55;32.03;;;-4.50;99.90;;;;;;7629631;19;20025;-69
2022/12/18 08:24:33;;;;;;;83.20;28.52;;;-4.40;99.90;;;;;;7606858;19;20934;-69
2022/12/18 08:27:06;;;;;;;88.78;28.05;;;-4.40;99.90;;;;;;7610868;19;20022;-70
2022/12/18 08:29:58;;;;;;;88.65;27.13;;;-4.50;99.90;;;;;;7621591;19;20016;-69
2022/12/18 08:32:30;;;;;;;78.90;27.60;;;-4.40;99.90;;;;;;7608088;19;20026;-69
2022/12/18 08:35:02;;;;;;;88.32;27.58;;;-4.40;99.90;;;;;;7629689;19;20018;-68
2022/12/18 08:37:34;;;;;;;80.90;27.42;;;-4.40;99.90;;;;;;7611668;19;20025;-69
2022/12/18 08:40:07;;;;;;;74.93;26.55;;;-4.40;99.90;;;;;;7600027;19;20532;-69
2022/12/18 08:45:32;;;;;;;85.47;27.80;;;-4.30;99.90;;;;;;7598512;19;20987;-69
2022/12/18 08:48:04;;;;;;;67.80;21.02;;;-4.30;99.90;;;;;;7608749;19;20010;-68
2022/12/18 08:50:36;;;;;;;79.78;27.55;;;-4.20;99.90;;;;;;7596892;19;20026;-69
2022/12/18 08:53:08;;;;;;;75.72;26.85;;;-4.20;99.90;;;;;;7608119;19;20013;-68
2022/12/18 08:55:41;;;;;;;80.25;26.52;;;-4.30;99.90;;;;;;7618424;19;20030;-69
2022/12/18 08:58:21;;;;;;;79.50;27.20;;;-4.30;99.90;;;;;;7597720;19;20021;-69
2022/12/18 09:00:53;;;;;;;78.85;27.33;;;-4.30;99.90;;;;;;7594621;19;20021;-71
2022/12/18 09:03:26;;;;;;;73.57;26.02;;;-4.10;99.90;;;;;;7588723;19;20010;-70
2022/12/18 09:05:59;;;;;;;83.18;28.15;;;-4.10;99.90;;;;;;7596209;19;20014;-70
2022/12/18 09:08:31;;;;;;;76.43;26.40;;;-4.00;99.90;;;;;;7594901;19;20897;-68
2022/12/18 09:11:04;;;;;;;85.72;29.60;;;-4.00;99.90;;;;;;7569583;19;20033;-70
2022/12/18 09:13:36;;;;;;;84.43;29.58;;;-4.10;99.90;;;;;;7567507;19;21010;-70
2022/12/18 09:16:09;;;;;;;77.00;29.67;;;-4.10;99.90;;;;;;7557513;19;20017;-68
2022/12/18 09:18:42;;;;;;;81.05;29.50;;;-4.00;99.90;;;;;;7569030;19;20014;-69
2022/12/18 09:21:17;;;;;;;83.07;29.63;;;-4.00;99.90;;;;;;7578620;19;20026;-69
2022/12/18 09:23:52;;;;;;;73.72;26.55;;;-3.90;99.90;;;;;;7573660;19;20048;-68
2022/12/18 14:22:57;;;;;;;86.55;27.77;;;-4.70;99.90;;;;;;7598232;19;22192;-67
2022/12/18 14:25:31;;;;;;;84.97;26.05;;;-4.70;99.90;;;;;;7622145;19;20022;-68
2022/12/18 14:28:12;;;;;;;84.50;28.63;;;-4.70;99.90;;;;;;7616616;19;20107;-68
2022/12/18 14:30:46;;;;;;;81.40;27.45;;;-4.60;99.90;;;;;;7626103;19;20015;-68
2022/12/18 14:33:22;;;;;;;74.65;26.55;;;-4.50;99.90;;;;;;7636934;19;20050;-68
2022/12/18 14:36:00;;;;;;;73.60;26.80;;;-4.40;99.90;;;;;;7635420;19;20007;-68
2022/12/18 14:38:40;;;;;;;77.25;25.60;;;-4.40;99.90;;;;;;7642925;19;20038;-66
2022/12/18 14:41:18;;;;;;;70.65;26.40;;;-4.40;99.90;;;;;;7632396;19;20956;-67
2022/12/18 14:43:53;;;;;;;73.50;25.33;;;-4.30;99.90;;;;;;7640492;19;20025;-70
2022/12/18 14:46:26;;;;;;;69.95;26.10;;;-4.30;99.90;;;;;;7644535;19;20017;-67
2022/12/18 14:49:01;;;;;;;78.25;27.25;;;-4.20;99.90;;;;;;7133890;19;10000476;-69
2022/12/18 14:51:35;;;;;;;70.40;26.90;;;-4.20;99.90;;;;;;7646221;19;20014;-67
2022/12/18 14:54:16;;;;;;;79.78;29.50;;;-4.10;99.90;;;;;;7645263;19;20018;-67
2022/12/18 14:57:00;;;;;;;81.63;27.25;;;-4.20;99.90;;;;;;7641557;19;20018;-69
2022/12/18 14:59:33;;;;;;;76.50;26.73;;;-4.20;99.90;;;;;;7635033;19;20015;-69
2022/12/18 15:02:21;;;;;;;70.30;27.00;;;-4.10;99.90;;;;;;7630087;19;20029;-68
2022/12/18 15:05:30;;;;;;;77.53;26.95;;;-4.20;99.90;;;;;;7623805;19;20018;-70
2022/12/18 15:08:24;;;;;;;70.03;25.58;;;-4.10;99.90;;;;;;7610324;19;20543;-69
2022/12/18 15:10:56;;;;;;;79.37;29.80;;;-4.10;99.90;;;;;;7618769;19;20029;-67
2022/12/18 15:13:29;;;;;;;71.65;25.17;;;-4.20;99.90;;;;;;7626938;19;20164;-68
2022/12/18 15:16:03;;;;;;;68.43;26.00;;;-4.20;99.90;;;;;;7629060;19;20684;-68
2022/12/18 15:18:42;;;;;;;77.45;26.25;;;-4.30;99.90;;;;;;7628851;19;20360;-68
2022/12/18 15:21:18;;;;;;;82.43;28.48;;;-4.30;99.90;;;;;;7624871;19;20025;-67
2022/12/18 15:23:52;;;;;;;72.13;27.13;;;-4.30;99.90;;;;;;7609155;19;20022;-68
2022/12/18 15:26:24;;;;;;;88.63;31.85;;;-4.20;99.90;;;;;;7641396;19;20014;-67
2022/12/18 15:29:02;;;;;;;86.18;29.27;;;-4.20;99.90;;;;;;7645522;19;20531;-68
2022/12/18 15:31:35;;;;;;;74.72;28.65;;;-4.20;99.90;;;;;;7634905;19;20010;-67
2022/12/18 15:34:08;;;;;;;84.90;28.95;;;-4.20;99.90;;;;;;7613831;19;20035;-68
2022/12/18 15:36:44;;;;;;;64.38;24.48;;;-4.20;99.90;;;;;;7589973;19;20272;-67
2022/12/18 15:39:17;;;;;;;69.18;28.27;;;-4.10;99.90;;;;;;7618742;19;20015;-66
2022/12/18 15:44:43;;;;;;;62.97;23.42;;;-4.00;99.90;;;;;;7587991;19;20022;-67
2022/12/18 15:47:15;;;;;;;79.82;30.13;;;-4.20;99.90;;;;;;7583745;19;20022;-68
2022/12/18 15:49:48;;;;;;;80.23;27.37;;;-4.10;99.90;;;;;;7577572;19;20015;-68
2022/12/18 15:52:25;;;;;;;89.85;28.17;;;-4.20;99.90;;;;;;7561318;19;20011;-67
2022/12/18 15:57:49;;;;;;;83.55;28.25;;;-4.30;99.90;;;;;;7554359;19;20014;-68
2022/12/18 16:00:22;;;;;;;81.65;28.48;;;-4.40;99.90;;;;;;7560111;19;20022;-68
2022/12/18 16:02:54;;;;;;;83.82;28.83;;;-4.30;99.90;;;;;;7551881;19;20546;-68
2022/12/18 16:05:29;;;;;;;81.28;28.63;;;-4.40;99.90;;;;;;7547416;19;20606;-68
2022/12/18 16:08:02;;;;;;;82.40;28.35;;;-4.40;99.90;;;;;;7566769;19;20419;-68
2022/12/18 16:10:35;;;;;;;80.38;30.17;;;-4.40;99.90;;;;;;7576918;19;20028;-71
2022/12/18 16:13:11;;;;;;;96.60;33.28;;;-4.40;99.90;;;;;;7580960;19;20064;-71
2022/12/18 16:15:44;;;;;;;86.88;28.83;;;-4.40;99.90;;;;;;7565224;19;20886;-68
2022/12/18 16:18:16;;;;;;;85.90;33.22;;;-4.40;99.90;;;;;;7581331;19;20399;-67
2022/12/18 16:20:48;;;;;;;73.10;27.60;;;-4.30;99.90;;;;;;7594990;19;20027;-67
2022/12/18 16:23:21;;;;;;;77.28;26.60;;;-4.50;99.90;;;;;;7585192;19;20906;-70
2022/12/18 16:25:53;;;;;;;84.45;30.20;;;-4.50;99.90;;;;;;7564008;19;20505;-68
2022/12/18 16:28:25;;;;;;;101.53;31.57;;;-4.50;99.90;;;;;;7579072;19;20047;-67
2022/12/18 16:30:58;;;;;;;86.65;27.98;;;-4.50;99.90;;;;;;7574828;19;20022;-67
2022/12/18 16:33:30;;;;;;;82.72;30.42;;;-4.40;99.90;;;;;;7575243;19;20571;-69
2022/12/18 16:36:02;;;;;;;85.82;30.23;;;-4.60;99.90;;;;;;7601070;19;20022;-70
2022/12/18 16:38:35;;;;;;;89.97;30.58;;;-4.50;99.90;;;;;;7588500;19;20015;-67
2022/12/18 16:41:30;;;;;;;85.95;31.23;;;-4.40;99.90;;;;;;7594852;19;20051;-66
2022/12/18 16:44:03;;;;;;;87.80;32.72;;;-4.40;99.90;;;;;;7588199;19;20056;-67
2022/12/18 16:46:36;;;;;;;91.85;31.40;;;-4.40;99.90;;;;;;7563912;19;20015;-68
2022/12/18 16:49:09;;;;;;;90.75;33.00;;;-4.50;99.90;;;;;;7558895;19;20501;-67
2022/12/18 16:51:43;;;;;;;93.82;31.55;;;-4.50;99.90;;;;;;7575662;19;20382;-67
2022/12/18 16:54:15;;;;;;;98.70;34.03;;;-4.50;99.90;;;;;;7567270;19;20022;-67
2022/12/18 16:56:51;;;;;;;98.15;33.38;;;-4.50;99.90;;;;;;7574574;19;20510;-67
2022/12/18 16:59:25;;;;;;;94.28;31.88;;;-4.50;99.90;;;;;;7567940;19;20022;-67
2022/12/18 17:01:58;;;;;;;99.15;32.80;;;-4.50;99.90;;;;;;7572352;19;20680;-67
2022/12/18 17:04:32;;;;;;;98.70;32.85;;;-4.40;99.90;;;;;;7560108;19;21122;-67
2022/12/18 17:07:04;;;;;;;95.90;32.50;;;-4.40;99.90;;;;;;7563267;19;20111;-66
2022/12/18 17:09:38;;;;;;;100.72;34.95;;;-4.40;99.90;;;;;;7570146;19;20101;-67
2022/12/18 17:12:10;;;;;;;92.07;31.45;;;-4.30;99.90;;;;;;7564272;19;20097;-70
2022/12/18 17:14:42;;;;;;;93.65;33.28;;;-4.30;99.90;;;;;;7558408;19;20053;-67
2022/12/18 17:17:16;;;;;;;91.40;33.33;;;-4.30;99.90;;;;;;7535014;19;20024;-67
2022/12/18 17:19:54;;;;;;;91.45;31.17;;;-4.30;99.90;;;;;;7563901;19;20022;-68
2022/12/18 17:22:27;;;;;;;90.13;29.38;;;-4.30;99.90;;;;;;7565059;19;20014;-68
2022/12/18 17:24:59;;;;;;;102.43;36.78;;;-4.30;99.90;;;;;;7570159;19;20037;-68
2022/12/18 17:27:31;;;;;;;82.80;27.57;;;-4.20;99.90;;;;;;7577684;19;20578;-68
2022/12/18 17:30:04;;;;;;;122.03;43.67;;;-4.30;99.90;;;;;;7552135;19;20282;-68
2022/12/18 17:32:37;;;;;;;90.38;32.70;;;-4.20;99.90;;;;;;7557927;19;20007;-67
2022/12/18 17:35:09;;;;;;;87.53;29.73;;;-4.30;99.90;;;;;;7562713;19;20018;-67
2022/12/18 17:37:41;;;;;;;94.70;31.55;;;-4.30;99.90;;;;;;7526285;19;20109;-68
2022/12/18 17:40:13;;;;;;;89.95;33.03;;;-4.30;99.90;;;;;;7542841;19;20053;-67
2022/12/18 17:42:46;;;;;;;98.05;30.05;;;-4.40;99.90;;;;;;7564496;19;20006;-67
2022/12/18 17:45:18;;;;;;;91.38;32.38;;;-4.40;99.90;;;;;;7570725;19;20069;-68
2022/12/18 17:47:50;;;;;;;98.95;33.03;;;-4.50;99.90;;;;;;7560441;19;20030;-67
2022/12/18 17:50:35;;;;;;;104.57;32.35;;;-4.40;99.90;;;;;;7570348;19;20026;-68
2022/12/18 17:53:07;;;;;;;99.18;31.42;;;-4.50;99.90;;;;;;7561281;19;20015;-67
2022/12/18 17:55:39;;;;;;;94.45;32.50;;;-4.50;99.90;;;;;;7535865;19;20672;-67
2022/12/18 17:58:12;;;;;;;96.43;32.90;;;-4.60;99.90;;;;;;7538292;19;20048;-68
2022/12/18 18:00:44;;;;;;;94.27;31.60;;;-4.60;99.90;;;;;;7563362;19;20018;-67
2022/12/18 18:03:17;;;;;;;94.63;30.98;;;-4.60;99.90;;;;;;7558381;19;20291;-68
2022/12/18 18:05:55;;;;;;;108.68;35.25;;;-4.70;99.90;;;;;;7572861;19;20994;-68
2022/12/18 18:08:28;;;;;;;102.53;32.42;;;-4.70;99.90;;;;;;7568702;19;20663;-67
2022/12/18 18:14:11;;;;;;;89.75;29.15;;;-4.70;99.90;;;;;;7557735;19;20019;-69
2022/12/18 18:16:49;;;;;;;90.50;29.90;;;-4.60;99.90;;;;;;7570706;19;22622;-68
2022/12/18 18:19:23;;;;;;;96.63;33.65;;;-4.60;99.90;;;;;;7555823;19;20021;-68
2022/12/18 18:21:55;;;;;;;91.18;33.55;;;-4.60;99.90;;;;;;7549353;19;20022;-67
2022/12/18 18:24:28;;;;;;;90.30;32.57;;;-4.60;99.90;;;;;;6045545;19;10000730;-67
2022/12/18 18:27:00;;;;;;;96.10;32.97;;;-4.60;99.90;;;;;;7566016;19;20022;-69
2022/12/18 18:29:33;;;;;;;103.68;36.30;;;-4.60;99.90;;;;;;7564018;19;20103;-67
2022/12/18 18:32:05;;;;;;;97.32;35.08;;;-4.70;99.90;;;;;;7568966;19;20018;-69
2022/12/18 18:34:39;;;;;;;93.47;32.67;;;-4.70;99.90;;;;;;7563641;19;20038;-68
2022/12/18 18:37:11;;;;;;;96.03;31.17;;;-4.60;99.90;;;;;;7541815;19;20021;-65
2022/12/18 18:39:44;;;;;;;97.40;30.97;;;-4.60;99.90;;;;;;7563630;19;20305;-68
2022/12/18 18:42:16;;;;;;;99.93;34.03;;;-4.60;99.90;;;;;;7546149;19;20282;-67
2022/12/18 18:44:48;;;;;;;83.32;27.15;;;-4.60;99.90;;;;;;7538231;19;20021;-66
2022/12/18 18:47:21;;;;;;;100.53;33.70;;;-4.50;99.90;;;;;;7539991;19;20014;-69
2022/12/18 18:49:53;;;;;;;116.32;42.53;;;-4.60;99.90;;;;;;7553090;19;20019;-67
2022/12/18 18:52:27;;;;;;;91.25;31.55;;;-4.60;99.90;;;;;;7540740;19;20386;-69
2022/12/18 18:54:59;;;;;;;131.60;34.10;;;-4.60;99.90;;;;;;7550656;19;20107;-69
2022/12/18 18:57:44;;;;;;;98.53;31.88;;;-4.70;99.90;;;;;;7545455;19;20015;-69
2022/12/18 19:00:17;;;;;;;102.70;31.70;;;-4.70;99.90;;;;;;7531380;19;20015;-66
2022/12/18 19:02:49;;;;;;;99.10;32.27;;;-4.60;99.90;;;;;;7545841;19;20565;-67
2022/12/18 19:05:24;;;;;;;100.00;33.20;;;-4.70;99.90;;;;;;7558463;19;20290;-67
2022/12/18 19:07:57;;;;;;;105.10;34.57;;;-4.70;99.90;;;;;;7560428;19;20741;-69
2022/12/18 19:10:29;;;;;;;108.32;34.25;;;-4.70;99.90;;;;;;7579928;19;20057;-70
2022/12/18 19:13:20;;;;;;;105.88;33.53;;;-4.80;99.90;;;;;;7558612;19;20829;-67
2022/12/18 19:15:55;;;;;;;100.47;34.38;;;-4.80;99.90;;;;;;7551888;19;21129;-69
2022/12/18 19:18:27;;;;;;;97.25;31.02;;;-4.80;99.90;;;;;;7548603;19;20077;-70
2022/12/18 19:21:03;;;;;;;99.75;32.42;;;-4.80;99.90;;;;;;7578366;19;20382;-66
2022/12/18 19:23:35;;;;;;;98.45;30.42;;;-4.80;99.90;;;;;;7553017;19;25396;-67
2022/12/18 19:26:09;;;;;;;95.32;31.00;;;-4.90;99.90;;;;;;7550782;19;20910;-67
2022/12/18 19:29:04;;;;;;;105.22;33.58;;;-4.80;99.90;;;;;;7544356;19;20619;-67
2022/12/18 19:31:37;;;;;;;98.32;33.70;;;-4.80;99.90;;;;;;7548205;19;20094;-70
